sensor_id;sensor_type;location;lat;lon;timestamp;P1;durP1;ratioP1;P2;durP2;ratioP2
23322;SDS011;11833;52.554;13.554;2023-12-04T01:00:27;23.33;;;13.68;;
23322;SDS011;11833;52.554;13.554;2023-12-04T01:02:53;24.15;;;13.63;;
23322;SDS011;11833;52.554;13.554;2023-12-04T01:05:19;25.10;;;12.35;;
23322;SDS011;11833;52.554;13.554;2023-12-04T01:07:44;20.83;;;12.10;;
23322;SDS011;11833;52.554;13.554;2023-12-04T01:10:10;20.48;;;11.77;;
23322;SDS011;11833;52.554;13.554;2023-12-04T01:12:36;21.60;;;13.32;;
23322;SDS011;11833;52.554;13.554;2023-12-04T01:15:02;23.88;;;11.35;;
23322;SDS011;11833;52.554;13.554;2023-12-04T01:17:28;21.05;;;10.60;;
23322;SDS011;11833;52.554;13.554;2023-12-04T01:19:54;25.77;;;14.45;;
23322;SDS011;11833;52.554;13.554;2023-12-04T01:22:19;25.02;;;14.30;;
23322;SDS011;11833;52.554;13.554;2023-12-04T01:24:45;19.30;;;10.77;;
23322;SDS011;11833;52.554;13.554;2023-12-04T01:27:11;20.00;;;10.40;;
23322;SDS011;11833;52.554;13.554;2023-12-04T01:29:37;26.77;;;15.07;;
23322;SDS011;11833;52.554;13.554;2023-12-04T01:32:03;26.90;;;14.02;;
23322;SDS011;11833;52.554;13.554;2023-12-04T01:34:29;23.00;;;11.63;;
23322;SDS011;11833;52.554;13.554;2023-12-04T01:36:55;20.60;;;11.35;;
23322;SDS011;11833;52.554;13.554;2023-12-04T01:39:21;29.85;;;15.27;;
23322;SDS011;11833;52.554;13.554;2023-12-04T01:41:47;23.77;;;12.32;;
23322;SDS011;11833;52.554;13.554;2023-12-04T01:44:13;20.73;;;11.55;;
23322;SDS011;11833;52.554;13.554;2023-12-04T01:46:38;20.35;;;10.77;;
23322;SDS011;11833;52.554;13.554;2023-12-04T01:49:04;19.80;;;12.30;;
23322;SDS011;11833;52.554;13.554;2023-12-04T01:51:30;21.48;;;12.02;;
23322;SDS011;11833;52.554;13.554;2023-12-04T01:53:58;24.85;;;13.68;;
23322;SDS011;11833;52.554;13.554;2023-12-04T01:56:25;24.15;;;13.98;;
23322;SDS011;11833;52.554;13.554;2023-12-04T01:58:51;23.83;;;12.93;;
23322;SDS011;11833;52.554;13.554;2023-12-04T02:01:17;26.67;;;12.82;;
23322;SDS011;11833;52.554;13.554;2023-12-04T02:03:45;23.75;;;13.55;;
23322;SDS011;11833;52.554;13.554;2023-12-04T02:06:10;29.15;;;15.95;;
23322;SDS011;11833;52.554;13.554;2023-12-04T02:08:37;31.92;;;15.90;;
23322;SDS011;11833;52.554;13.554;2023-12-04T02:11:05;22.27;;;12.77;;
23322;SDS011;11833;52.554;13.554;2023-12-04T02:13:31;25.85;;;14.50;;
23322;SDS011;11833;52.554;13.554;2023-12-04T02:15:59;25.45;;;13.55;;
23322;SDS011;11833;52.554;13.554;2023-12-04T02:18:31;22.67;;;13.43;;
23322;SDS011;11833;52.554;13.554;2023-12-04T02:20:59;26.15;;;13.68;;
23322;SDS011;11833;52.554;13.554;2023-12-04T02:23:26;24.58;;;13.90;;
23322;SDS011;11833;52.554;13.554;2023-12-04T02:25:58;24.55;;;13.73;;
23322;SDS011;11833;52.554;13.554;2023-12-04T02:28:30;26.30;;;15.43;;
23322;SDS011;11833;52.554;13.554;2023-12-04T02:30:59;25.58;;;14.30;;
23322;SDS011;11833;52.554;13.554;2023-12-04T02:33:28;23.45;;;13.23;;
23322;SDS011;11833;52.554;13.554;2023-12-04T02:35:54;23.65;;;13.82;;
23322;SDS011;11833;52.554;13.554;2023-12-04T02:38:22;22.33;;;13.27;;
23322;SDS011;11833;52.554;13.554;2023-12-04T02:40:49;23.35;;;14.13;;
23322;SDS011;11833;52.554;13.554;2023-12-04T02:43:15;22.25;;;12.65;;
23322;SDS011;11833;52.554;13.554;2023-12-04T02:45:40;21.65;;;12.45;;
23322;SDS011;11833;52.554;13.554;2023-12-04T02:48:06;21.35;;;11.85;;
23322;SDS011;11833;52.554;13.554;2023-12-04T02:50:32;24.15;;;12.90;;
23322;SDS011;11833;52.554;13.554;2023-12-04T02:52:58;24.90;;;13.88;;
23322;SDS011;11833;52.554;13.554;2023-12-04T02:55:24;23.75;;;13.73;;
23322;SDS011;11833;52.554;13.554;2023-12-04T02:57:49;24.50;;;14.68;;
23322;SDS011;11833;52.554;13.554;2023-12-04T03:00:15;23.90;;;12.18;;
23322;SDS011;11833;52.554;13.554;2023-12-04T03:02:41;22.42;;;12.75;;
23322;SDS011;11833;52.554;13.554;2023-12-04T03:05:07;27.23;;;15.77;;
23322;SDS011;11833;52.554;13.554;2023-12-04T03:07:33;19.88;;;12.18;;
23322;SDS011;11833;52.554;13.554;2023-12-04T03:09:59;21.90;;;12.27;;
23322;SDS011;11833;52.554;13.554;2023-12-04T03:12:25;25.98;;;14.45;;
23322;SDS011;11833;52.554;13.554;2023-12-04T03:14:50;24.50;;;13.35;;
23322;SDS011;11833;52.554;13.554;2023-12-04T03:17:16;23.63;;;12.85;;
23322;SDS011;11833;52.554;13.554;2023-12-04T03:19:42;20.90;;;12.38;;
23322;SDS011;11833;52.554;13.554;2023-12-04T03:22:07;22.10;;;11.98;;
23322;SDS011;11833;52.554;13.554;2023-12-04T03:24:33;26.17;;;14.25;;
23322;SDS011;11833;52.554;13.554;2023-12-04T03:26:59;25.00;;;14.07;;
23322;SDS011;11833;52.554;13.554;2023-12-04T03:29:25;22.90;;;13.77;;
23322;SDS011;11833;52.554;13.554;2023-12-04T03:31:50;22.67;;;12.73;;
23322;SDS011;11833;52.554;13.554;2023-12-04T03:34:16;23.13;;;12.90;;
23322;SDS011;11833;52.554;13.554;2023-12-04T03:36:42;24.88;;;13.68;;
23322;SDS011;11833;52.554;13.554;2023-12-04T03:39:07;24.20;;;14.27;;
23322;SDS011;11833;52.554;13.554;2023-12-04T03:41:33;27.58;;;15.02;;
23322;SDS011;11833;52.554;13.554;2023-12-04T03:43:59;24.00;;;13.25;;
23322;SDS011;11833;52.554;13.554;2023-12-04T03:46:25;21.83;;;11.57;;
23322;SDS011;11833;52.554;13.554;2023-12-04T03:48:51;26.33;;;14.68;;
23322;SDS011;11833;52.554;13.554;2023-12-04T03:51:16;22.48;;;12.75;;
23322;SDS011;11833;52.554;13.554;2023-12-04T03:53:42;22.45;;;13.00;;
23322;SDS011;11833;52.554;13.554;2023-12-04T03:56:08;23.88;;;13.00;;
23322;SDS011;11833;52.554;13.554;2023-12-04T03:58:35;20.52;;;13.10;;
23322;SDS011;11833;52.554;13.554;2023-12-04T04:01:02;24.58;;;13.60;;
23322;SDS011;11833;52.554;13.554;2023-12-04T04:03:28;22.35;;;12.52;;
23322;SDS011;11833;52.554;13.554;2023-12-04T04:05:54;25.98;;;14.18;;
23322;SDS011;11833;52.554;13.554;2023-12-04T04:08:20;23.38;;;12.40;;
23322;SDS011;11833;52.554;13.554;2023-12-04T04:10:45;26.77;;;13.85;;
23322;SDS011;11833;52.554;13.554;2023-12-04T04:13:11;23.67;;;12.57;;
23322;SDS011;11833;52.554;13.554;2023-12-04T04:15:37;24.30;;;13.38;;
23322;SDS011;11833;52.554;13.554;2023-12-04T04:18:03;20.60;;;12.15;;
23322;SDS011;11833;52.554;13.554;2023-12-04T04:20:28;23.67;;;13.02;;
23322;SDS011;11833;52.554;13.554;2023-12-04T04:22:54;26.50;;;14.10;;
23322;SDS011;11833;52.554;13.554;2023-12-04T04:25:20;23.98;;;13.57;;
23322;SDS011;11833;52.554;13.554;2023-12-04T04:27:48;20.45;;;11.70;;
23322;SDS011;11833;52.554;13.554;2023-12-04T04:30:14;26.38;;;14.35;;
23322;SDS011;11833;52.554;13.554;2023-12-04T04:32:39;20.98;;;11.45;;
23322;SDS011;11833;52.554;13.554;2023-12-04T04:35:06;21.08;;;11.82;;
23322;SDS011;11833;52.554;13.554;2023-12-04T04:37:32;20.90;;;12.45;;
23322;SDS011;11833;52.554;13.554;2023-12-04T04:39:58;25.45;;;14.05;;
23322;SDS011;11833;52.554;13.554;2023-12-04T04:42:23;22.73;;;13.27;;
23322;SDS011;11833;52.554;13.554;2023-12-04T04:44:49;18.33;;;11.85;;
23322;SDS011;11833;52.554;13.554;2023-12-04T04:47:15;18.50;;;10.57;;
23322;SDS011;11833;52.554;13.554;2023-12-04T04:49:41;16.48;;;9.25;;
23322;SDS011;11833;52.554;13.554;2023-12-04T04:52:07;19.45;;;10.75;;
23322;SDS011;11833;52.554;13.554;2023-12-04T04:54:32;20.85;;;11.88;;
23322;SDS011;11833;52.554;13.554;2023-12-04T04:56:58;21.50;;;12.07;;
23322;SDS011;11833;52.554;13.554;2023-12-04T04:59:24;19.35;;;11.75;;
23322;SDS011;11833;52.554;13.554;2023-12-04T05:01:50;18.38;;;10.90;;
23322;SDS011;11833;52.554;13.554;2023-12-04T05:04:16;20.20;;;11.15;;
23322;SDS011;11833;52.554;13.554;2023-12-04T05:06:42;21.30;;;12.48;;
23322;SDS011;11833;52.554;13.554;2023-12-04T05:09:07;22.73;;;12.60;;
23322;SDS011;11833;52.554;13.554;2023-12-04T05:11:33;21.05;;;12.00;;
23322;SDS011;11833;52.554;13.554;2023-12-04T05:13:59;22.70;;;11.98;;
23322;SDS011;11833;52.554;13.554;2023-12-04T05:16:25;21.83;;;12.70;;
23322;SDS011;11833;52.554;13.554;2023-12-04T05:18:50;21.00;;;10.98;;
23322;SDS011;11833;52.554;13.554;2023-12-04T05:21:16;19.73;;;10.68;;
23322;SDS011;11833;52.554;13.554;2023-12-04T05:23:42;22.55;;;11.15;;
23322;SDS011;11833;52.554;13.554;2023-12-04T05:26:08;18.45;;;11.27;;
23322;SDS011;11833;52.554;13.554;2023-12-04T05:28:34;20.70;;;11.90;;
23322;SDS011;11833;52.554;13.554;2023-12-04T05:31:00;20.83;;;12.43;;
23322;SDS011;11833;52.554;13.554;2023-12-04T05:33:25;21.02;;;11.00;;
23322;SDS011;11833;52.554;13.554;2023-12-04T05:35:52;23.23;;;13.13;;
23322;SDS011;11833;52.554;13.554;2023-12-04T05:38:18;17.92;;;10.65;;
23322;SDS011;11833;52.554;13.554;2023-12-04T05:40:44;21.02;;;12.27;;
23322;SDS011;11833;52.554;13.554;2023-12-04T05:43:10;24.80;;;12.93;;
23322;SDS011;11833;52.554;13.554;2023-12-04T05:45:35;19.92;;;11.88;;
23322;SDS011;11833;52.554;13.554;2023-12-04T05:48:01;16.55;;;10.57;;
23322;SDS011;11833;52.554;13.554;2023-12-04T05:50:27;22.13;;;12.50;;
23322;SDS011;11833;52.554;13.554;2023-12-04T05:52:53;20.58;;;12.93;;
23322;SDS011;11833;52.554;13.554;2023-12-04T05:55:19;24.05;;;13.40;;
23322;SDS011;11833;52.554;13.554;2023-12-04T05:57:45;23.75;;;12.25;;
23322;SDS011;11833;52.554;13.554;2023-12-04T06:00:11;23.40;;;12.95;;
23322;SDS011;11833;52.554;13.554;2023-12-04T06:02:38;21.85;;;12.07;;
23322;SDS011;11833;52.554;13.554;2023-12-04T06:05:05;25.77;;;13.88;;
23322;SDS011;11833;52.554;13.554;2023-12-04T06:07:32;20.33;;;11.77;;
23322;SDS011;11833;52.554;13.554;2023-12-04T06:09:59;23.08;;;12.65;;
23322;SDS011;11833;52.554;13.554;2023-12-04T06:12:25;24.58;;;13.55;;
23322;SDS011;11833;52.554;13.554;2023-12-04T06:14:51;21.40;;;12.45;;
23322;SDS011;11833;52.554;13.554;2023-12-04T06:17:16;19.08;;;10.93;;
23322;SDS011;11833;52.554;13.554;2023-12-04T06:19:42;24.23;;;13.15;;
23322;SDS011;11833;52.554;13.554;2023-12-04T06:22:08;19.35;;;11.07;;
23322;SDS011;11833;52.554;13.554;2023-12-04T06:24:34;21.33;;;12.82;;
23322;SDS011;11833;52.554;13.554;2023-12-04T06:27:00;20.88;;;12.50;;
23322;SDS011;11833;52.554;13.554;2023-12-04T06:29:26;20.95;;;11.15;;
23322;SDS011;11833;52.554;13.554;2023-12-04T06:31:53;22.45;;;13.20;;
23322;SDS011;11833;52.554;13.554;2023-12-04T06:34:19;21.08;;;12.52;;
23322;SDS011;11833;52.554;13.554;2023-12-04T06:36:45;23.38;;;12.77;;
23322;SDS011;11833;52.554;13.554;2023-12-04T06:39:12;21.55;;;11.57;;
23322;SDS011;11833;52.554;13.554;2023-12-04T06:41:42;18.38;;;9.68;;
23322;SDS011;11833;52.554;13.554;2023-12-04T06:44:09;20.05;;;10.45;;
23322;SDS011;11833;52.554;13.554;2023-12-04T06:46:36;21.10;;;12.13;;
23322;SDS011;11833;52.554;13.554;2023-12-04T06:49:04;21.40;;;12.18;;
23322;SDS011;11833;52.554;13.554;2023-12-04T06:51:31;23.17;;;13.30;;
23322;SDS011;11833;52.554;13.554;2023-12-04T06:53:57;21.38;;;11.90;;
23322;SDS011;11833;52.554;13.554;2023-12-04T06:56:23;22.67;;;12.40;;
23322;SDS011;11833;52.554;13.554;2023-12-04T06:58:49;20.17;;;11.43;;
23322;SDS011;11833;52.554;13.554;2023-12-04T07:01:15;23.17;;;10.80;;
23322;SDS011;11833;52.554;13.554;2023-12-04T07:03:40;20.17;;;11.93;;
23322;SDS011;11833;52.554;13.554;2023-12-04T07:06:07;17.30;;;11.18;;
23322;SDS011;11833;52.554;13.554;2023-12-04T07:08:33;20.23;;;11.85;;
23322;SDS011;11833;52.554;13.554;2023-12-04T07:10:58;23.10;;;13.43;;
23322;SDS011;11833;52.554;13.554;2023-12-04T07:13:24;18.85;;;9.95;;
23322;SDS011;11833;52.554;13.554;2023-12-04T07:15:50;18.60;;;11.63;;
23322;SDS011;11833;52.554;13.554;2023-12-04T07:18:16;18.00;;;11.23;;
23322;SDS011;11833;52.554;13.554;2023-12-04T07:20:42;24.20;;;13.27;;
23322;SDS011;11833;52.554;13.554;2023-12-04T07:23:07;21.00;;;11.88;;
23322;SDS011;11833;52.554;13.554;2023-12-04T07:25:33;19.48;;;10.32;;
23322;SDS011;11833;52.554;13.554;2023-12-04T07:27:59;19.52;;;11.20;;
23322;SDS011;11833;52.554;13.554;2023-12-04T07:30:25;19.35;;;11.73;;
23322;SDS011;11833;52.554;13.554;2023-12-04T07:32:51;20.10;;;11.68;;
23322;SDS011;11833;52.554;13.554;2023-12-04T07:35:18;19.83;;;11.10;;
23322;SDS011;11833;52.554;13.554;2023-12-04T07:37:44;21.33;;;13.18;;
23322;SDS011;11833;52.554;13.554;2023-12-04T07:40:10;19.85;;;10.43;;
23322;SDS011;11833;52.554;13.554;2023-12-04T07:42:36;21.30;;;12.20;;
23322;SDS011;11833;52.554;13.554;2023-12-04T07:45:03;21.05;;;11.73;;
23322;SDS011;11833;52.554;13.554;2023-12-04T07:47:30;19.65;;;10.95;;
23322;SDS011;11833;52.554;13.554;2023-12-04T07:49:55;23.63;;;13.55;;
23322;SDS011;11833;52.554;13.554;2023-12-04T07:52:21;20.40;;;11.80;;
23322;SDS011;11833;52.554;13.554;2023-12-04T07:54:47;19.33;;;10.80;;
23322;SDS011;11833;52.554;13.554;2023-12-04T07:57:12;20.58;;;11.50;;
23322;SDS011;11833;52.554;13.554;2023-12-04T07:59:38;24.55;;;12.10;;
23322;SDS011;11833;52.554;13.554;2023-12-04T08:02:04;17.45;;;10.13;;
23322;SDS011;11833;52.554;13.554;2023-12-04T08:04:29;17.27;;;10.63;;
23322;SDS011;11833;52.554;13.554;2023-12-04T08:06:55;18.75;;;10.05;;
23322;SDS011;11833;52.554;13.554;2023-12-04T08:09:21;17.75;;;10.20;;
23322;SDS011;11833;52.554;13.554;2023-12-04T08:11:47;21.27;;;11.88;;
23322;SDS011;11833;52.554;13.554;2023-12-04T08:14:12;21.20;;;11.18;;
23322;SDS011;11833;52.554;13.554;2023-12-04T08:16:38;20.17;;;11.50;;
23322;SDS011;11833;52.554;13.554;2023-12-04T08:19:04;19.83;;;12.40;;
23322;SDS011;11833;52.554;13.554;2023-12-04T08:21:30;21.08;;;11.93;;
23322;SDS011;11833;52.554;13.554;2023-12-04T08:23:57;22.02;;;11.13;;
23322;SDS011;11833;52.554;13.554;2023-12-04T08:26:23;20.60;;;10.43;;
23322;SDS011;11833;52.554;13.554;2023-12-04T08:28:50;18.27;;;9.98;;
23322;SDS011;11833;52.554;13.554;2023-12-04T08:31:17;16.15;;;10.27;;
23322;SDS011;11833;52.554;13.554;2023-12-04T08:33:43;19.73;;;11.52;;
23322;SDS011;11833;52.554;13.554;2023-12-04T08:36:09;15.40;;;9.73;;
23322;SDS011;11833;52.554;13.554;2023-12-04T08:38:36;17.92;;;11.15;;
23322;SDS011;11833;52.554;13.554;2023-12-04T08:41:05;20.15;;;11.35;;
23322;SDS011;11833;52.554;13.554;2023-12-04T08:43:31;17.83;;;10.40;;
23322;SDS011;11833;52.554;13.554;2023-12-04T08:45:57;22.30;;;12.40;;
23322;SDS011;11833;52.554;13.554;2023-12-04T08:48:25;14.77;;;8.95;;
23322;SDS011;11833;52.554;13.554;2023-12-04T08:50:51;21.15;;;11.85;;
23322;SDS011;11833;52.554;13.554;2023-12-04T08:53:17;22.23;;;10.88;;
23322;SDS011;11833;52.554;13.554;2023-12-04T08:55:42;18.27;;;9.98;;
23322;SDS011;11833;52.554;13.554;2023-12-04T08:58:09;17.73;;;10.20;;
23322;SDS011;11833;52.554;13.554;2023-12-04T09:00:36;16.40;;;10.27;;
23322;SDS011;11833;52.554;13.554;2023-12-04T09:03:02;16.60;;;11.35;;
23322;SDS011;11833;52.554;13.554;2023-12-04T09:05:28;16.85;;;10.55;;
23322;SDS011;11833;52.554;13.554;2023-12-04T09:07:54;17.05;;;10.73;;
23322;SDS011;11833;52.554;13.554;2023-12-04T09:10:20;17.42;;;9.77;;
23322;SDS011;11833;52.554;13.554;2023-12-04T09:12:45;21.00;;;10.25;;
23322;SDS011;11833;52.554;13.554;2023-12-04T09:15:11;16.30;;;9.98;;
23322;SDS011;11833;52.554;13.554;2023-12-04T09:17:37;17.65;;;9.15;;
23322;SDS011;11833;52.554;13.554;2023-12-04T09:20:04;14.40;;;9.25;;
23322;SDS011;11833;52.554;13.554;2023-12-04T09:22:30;13.20;;;7.88;;
23322;SDS011;11833;52.554;13.554;2023-12-04T09:24:56;16.05;;;9.13;;
23322;SDS011;11833;52.554;13.554;2023-12-04T09:27:22;17.52;;;11.10;;
23322;SDS011;11833;52.554;13.554;2023-12-04T09:29:48;15.48;;;8.27;;
23322;SDS011;11833;52.554;13.554;2023-12-04T09:32:13;21.05;;;10.95;;
23322;SDS011;11833;52.554;13.554;2023-12-04T09:34:39;13.75;;;8.68;;
23322;SDS011;11833;52.554;13.554;2023-12-04T09:37:05;18.83;;;11.30;;
23322;SDS011;11833;52.554;13.554;2023-12-04T09:39:32;16.65;;;9.82;;
23322;SDS011;11833;52.554;13.554;2023-12-04T09:41:58;14.00;;;8.52;;
23322;SDS011;11833;52.554;13.554;2023-12-04T09:44:24;16.90;;;10.32;;
23322;SDS011;11833;52.554;13.554;2023-12-04T09:46:53;19.63;;;10.20;;
23322;SDS011;11833;52.554;13.554;2023-12-04T09:49:19;16.95;;;9.27;;
23322;SDS011;11833;52.554;13.554;2023-12-04T09:51:46;21.95;;;10.98;;
23322;SDS011;11833;52.554;13.554;2023-12-04T09:54:12;15.70;;;8.02;;
23322;SDS011;11833;52.554;13.554;2023-12-04T09:56:42;15.98;;;9.00;;
23322;SDS011;11833;52.554;13.554;2023-12-04T09:59:09;17.23;;;9.15;;
23322;SDS011;11833;52.554;13.554;2023-12-04T10:01:38;16.98;;;8.85;;
23322;SDS011;11833;52.554;13.554;2023-12-04T10:04:05;18.33;;;10.05;;
23322;SDS011;11833;52.554;13.554;2023-12-04T10:06:32;16.15;;;9.30;;
23322;SDS011;11833;52.554;13.554;2023-12-04T10:08:58;19.52;;;9.65;;
23322;SDS011;11833;52.554;13.554;2023-12-04T10:11:24;19.40;;;8.68;;
23322;SDS011;11833;52.554;13.554;2023-12-04T10:13:51;14.90;;;9.02;;
23322;SDS011;11833;52.554;13.554;2023-12-04T10:16:32;14.43;;;8.73;;
23322;SDS011;11833;52.554;13.554;2023-12-04T10:21:53;17.73;;;9.38;;
23322;SDS011;11833;52.554;13.554;2023-12-04T10:27:07;14.63;;;8.85;;
23322;SDS011;11833;52.554;13.554;2023-12-04T10:29:49;17.83;;;9.43;;
23322;SDS011;11833;52.554;13.554;2023-12-04T10:32:20;10.93;;;6.28;;
23322;SDS011;11833;52.554;13.554;2023-12-04T10:34:46;15.90;;;8.73;;
23322;SDS011;11833;52.554;13.554;2023-12-04T10:37:12;11.70;;;7.78;;
23322;SDS011;11833;52.554;13.554;2023-12-04T10:40:00;16.48;;;8.82;;
23322;SDS011;11833;52.554;13.554;2023-12-04T10:42:28;16.40;;;9.98;;
23322;SDS011;11833;52.554;13.554;2023-12-04T10:44:55;15.48;;;9.93;;
23322;SDS011;11833;52.554;13.554;2023-12-04T10:47:23;13.73;;;7.85;;
23322;SDS011;11833;52.554;13.554;2023-12-04T10:49:49;14.55;;;9.15;;
23322;SDS011;11833;52.554;13.554;2023-12-04T10:52:16;12.60;;;8.30;;
23322;SDS011;11833;52.554;13.554;2023-12-04T10:54:46;13.77;;;7.95;;
23322;SDS011;11833;52.554;13.554;2023-12-04T10:57:14;15.68;;;9.98;;
23322;SDS011;11833;52.554;13.554;2023-12-04T10:59:49;14.07;;;8.18;;
23322;SDS011;11833;52.554;13.554;2023-12-04T11:02:21;10.98;;;6.28;;
23322;SDS011;11833;52.554;13.554;2023-12-04T11:04:52;10.52;;;7.03;;
23322;SDS011;11833;52.554;13.554;2023-12-04T11:07:28;13.35;;;7.57;;
23322;SDS011;11833;52.554;13.554;2023-12-04T11:09:57;13.90;;;7.90;;
23322;SDS011;11833;52.554;13.554;2023-12-04T11:12:25;10.30;;;6.65;;
23322;SDS011;11833;52.554;13.554;2023-12-04T11:14:56;11.27;;;7.50;;
23322;SDS011;11833;52.554;13.554;2023-12-04T11:17:27;11.88;;;6.38;;
23322;SDS011;11833;52.554;13.554;2023-12-04T11:19:59;10.57;;;6.88;;
23322;SDS011;11833;52.554;13.554;2023-12-04T11:22:48;12.40;;;7.13;;
23322;SDS011;11833;52.554;13.554;2023-12-04T11:25:15;12.27;;;6.97;;
23322;SDS011;11833;52.554;13.554;2023-12-04T11:27:42;13.32;;;7.47;;
23322;SDS011;11833;52.554;13.554;2023-12-04T11:30:08;9.55;;;6.47;;
23322;SDS011;11833;52.554;13.554;2023-12-04T11:32:46;12.05;;;6.50;;
23322;SDS011;11833;52.554;13.554;2023-12-04T11:35:17;12.00;;;6.78;;
23322;SDS011;11833;52.554;13.554;2023-12-04T11:37:46;10.32;;;6.55;;
23322;SDS011;11833;52.554;13.554;2023-12-04T11:40:14;11.27;;;6.15;;
23322;SDS011;11833;52.554;13.554;2023-12-04T11:42:41;11.63;;;7.30;;
23322;SDS011;11833;52.554;13.554;2023-12-04T11:45:09;10.30;;;6.35;;
23322;SDS011;11833;52.554;13.554;2023-12-04T11:50:20;12.70;;;6.85;;
23322;SDS011;11833;52.554;13.554;2023-12-04T11:52:47;9.65;;;6.10;;
23322;SDS011;11833;52.554;13.554;2023-12-04T11:55:17;11.77;;;7.07;;
23322;SDS011;11833;52.554;13.554;2023-12-04T11:57:47;9.40;;;6.00;;
23322;SDS011;11833;52.554;13.554;2023-12-04T12:05:21;10.85;;;6.80;;
23322;SDS011;11833;52.554;13.554;2023-12-04T12:07:48;11.35;;;7.00;;
23322;SDS011;11833;52.554;13.554;2023-12-04T12:10:15;11.10;;;6.68;;
23322;SDS011;11833;52.554;13.554;2023-12-04T12:12:44;8.43;;;5.85;;
23322;SDS011;11833;52.554;13.554;2023-12-04T12:15:12;10.77;;;6.88;;
23322;SDS011;11833;52.554;13.554;2023-12-04T12:17:40;9.18;;;6.20;;
23322;SDS011;11833;52.554;13.554;2023-12-04T12:20:10;10.98;;;6.45;;
23322;SDS011;11833;52.554;13.554;2023-12-04T12:22:39;11.90;;;7.38;;
23322;SDS011;11833;52.554;13.554;2023-12-04T12:25:08;8.35;;;5.85;;
23322;SDS011;11833;52.554;13.554;2023-12-04T12:27:38;11.02;;;7.03;;
23322;SDS011;11833;52.554;13.554;2023-12-04T12:30:05;9.52;;;6.22;;
23322;SDS011;11833;52.554;13.554;2023-12-04T12:32:32;6.95;;;4.95;;
23322;SDS011;11833;52.554;13.554;2023-12-04T12:34:59;11.18;;;7.00;;
23322;SDS011;11833;52.554;13.554;2023-12-04T12:37:25;11.18;;;6.38;;
23322;SDS011;11833;52.554;13.554;2023-12-04T12:39:51;9.38;;;6.43;;
23322;SDS011;11833;52.554;13.554;2023-12-04T12:42:27;9.93;;;6.20;;
23322;SDS011;11833;52.554;13.554;2023-12-04T12:44:54;11.95;;;5.88;;
23322;SDS011;11833;52.554;13.554;2023-12-04T12:47:21;9.05;;;6.18;;
23322;SDS011;11833;52.554;13.554;2023-12-04T12:49:47;13.23;;;7.35;;
23322;SDS011;11833;52.554;13.554;2023-12-04T12:52:13;9.00;;;5.95;;
23322;SDS011;11833;52.554;13.554;2023-12-04T12:54:40;11.77;;;6.25;;
23322;SDS011;11833;52.554;13.554;2023-12-04T12:57:08;10.00;;;6.38;;
23322;SDS011;11833;52.554;13.554;2023-12-04T12:59:37;10.13;;;6.10;;
23322;SDS011;11833;52.554;13.554;2023-12-04T13:02:04;9.27;;;6.05;;
23322;SDS011;11833;52.554;13.554;2023-12-04T13:04:39;11.35;;;6.78;;
23322;SDS011;11833;52.554;13.554;2023-12-04T13:07:06;12.52;;;6.93;;
23322;SDS011;11833;52.554;13.554;2023-12-04T13:09:33;9.07;;;6.18;;
23322;SDS011;11833;52.554;13.554;2023-12-04T13:12:03;10.68;;;6.43;;
23322;SDS011;11833;52.554;13.554;2023-12-04T13:14:30;8.73;;;5.97;;
23322;SDS011;11833;52.554;13.554;2023-12-04T13:16:56;11.63;;;6.65;;
23322;SDS011;11833;52.554;13.554;2023-12-04T13:19:22;11.32;;;7.25;;
23322;SDS011;11833;52.554;13.554;2023-12-04T13:21:48;12.80;;;7.00;;
23322;SDS011;11833;52.554;13.554;2023-12-04T13:24:15;10.93;;;7.05;;
23322;SDS011;11833;52.554;13.554;2023-12-04T13:26:42;11.40;;;7.20;;
23322;SDS011;11833;52.554;13.554;2023-12-04T13:29:09;9.55;;;6.65;;
23322;SDS011;11833;52.554;13.554;2023-12-04T13:31:35;11.32;;;6.40;;
23322;SDS011;11833;52.554;13.554;2023-12-04T13:34:01;10.43;;;6.63;;
23322;SDS011;11833;52.554;13.554;2023-12-04T13:36:28;12.10;;;7.07;;
23322;SDS011;11833;52.554;13.554;2023-12-04T13:38:54;13.13;;;7.22;;
23322;SDS011;11833;52.554;13.554;2023-12-04T13:41:20;9.15;;;6.13;;
23322;SDS011;11833;52.554;13.554;2023-12-04T13:44:04;12.48;;;7.57;;
23322;SDS011;11833;52.554;13.554;2023-12-04T13:46:30;13.00;;;7.57;;
23322;SDS011;11833;52.554;13.554;2023-12-04T13:48:56;12.90;;;7.85;;
23322;SDS011;11833;52.554;13.554;2023-12-04T13:51:23;11.70;;;7.72;;
23322;SDS011;11833;52.554;13.554;2023-12-04T13:53:50;13.32;;;7.90;;
23322;SDS011;11833;52.554;13.554;2023-12-04T13:56:20;12.23;;;7.93;;
23322;SDS011;11833;52.554;13.554;2023-12-04T13:59:16;11.13;;;6.40;;
23322;SDS011;11833;52.554;13.554;2023-12-04T14:01:45;14.30;;;8.27;;
23322;SDS011;11833;52.554;13.554;2023-12-04T14:04:11;13.95;;;7.25;;
23322;SDS011;11833;52.554;13.554;2023-12-04T14:06:37;14.38;;;8.43;;
23322;SDS011;11833;52.554;13.554;2023-12-04T14:09:03;13.32;;;7.38;;
23322;SDS011;11833;52.554;13.554;2023-12-04T14:11:34;14.88;;;8.73;;
23322;SDS011;11833;52.554;13.554;2023-12-04T14:14:03;10.43;;;6.80;;
23322;SDS011;11833;52.554;13.554;2023-12-04T14:16:29;12.63;;;7.25;;
23322;SDS011;11833;52.554;13.554;2023-12-04T14:18:56;14.18;;;8.32;;
23322;SDS011;11833;52.554;13.554;2023-12-04T14:21:22;14.80;;;8.98;;
23322;SDS011;11833;52.554;13.554;2023-12-04T14:23:48;13.57;;;8.93;;
23322;SDS011;11833;52.554;13.554;2023-12-04T14:26:14;15.07;;;8.68;;
23322;SDS011;11833;52.554;13.554;2023-12-04T14:28:40;16.38;;;9.45;;
23322;SDS011;11833;52.554;13.554;2023-12-04T14:31:06;15.50;;;9.13;;
23322;SDS011;11833;52.554;13.554;2023-12-04T14:33:32;9.18;;;5.55;;
23322;SDS011;11833;52.554;13.554;2023-12-04T14:35:58;14.02;;;9.10;;
23322;SDS011;11833;52.554;13.554;2023-12-04T14:38:24;15.18;;;7.97;;
23322;SDS011;11833;52.554;13.554;2023-12-04T14:40:50;14.68;;;8.82;;
23322;SDS011;11833;52.554;13.554;2023-12-04T14:43:16;13.90;;;8.40;;
23322;SDS011;11833;52.554;13.554;2023-12-04T14:45:41;14.45;;;8.60;;
23322;SDS011;11833;52.554;13.554;2023-12-04T14:48:07;17.90;;;9.73;;
23322;SDS011;11833;52.554;13.554;2023-12-04T14:50:33;17.23;;;9.82;;
23322;SDS011;11833;52.554;13.554;2023-12-04T14:53:04;13.50;;;8.82;;
23322;SDS011;11833;52.554;13.554;2023-12-04T14:55:49;12.00;;;7.32;;
23322;SDS011;11833;52.554;13.554;2023-12-04T14:58:33;17.85;;;9.45;;
23322;SDS011;11833;52.554;13.554;2023-12-04T15:01:18;14.50;;;8.98;;
23322;SDS011;11833;52.554;13.554;2023-12-04T15:04:19;13.85;;;8.85;;
23322;SDS011;11833;52.554;13.554;2023-12-04T15:07:22;13.23;;;8.38;;
23322;SDS011;11833;52.554;13.554;2023-12-04T15:10:06;15.43;;;10.48;;
23322;SDS011;11833;52.554;13.554;2023-12-04T15:12:35;12.98;;;8.10;;
23322;SDS011;11833;52.554;13.554;2023-12-04T15:15:23;14.65;;;8.35;;
23322;SDS011;11833;52.554;13.554;2023-12-04T15:17:52;14.80;;;8.65;;
23322;SDS011;11833;52.554;13.554;2023-12-04T15:20:21;12.70;;;7.93;;
23322;SDS011;11833;52.554;13.554;2023-12-04T15:22:53;13.73;;;8.30;;
23322;SDS011;11833;52.554;13.554;2023-12-04T15:25:19;16.65;;;9.70;;
23322;SDS011;11833;52.554;13.554;2023-12-04T15:27:46;18.90;;;10.20;;